createdAt,value
2018-10-16T00:01:04.177Z,10.35
2018-10-16T00:03:32.504Z,10.29
2018-10-16T00:06:00.841Z,10.34
2018-10-16T00:08:29.177Z,10.29
2018-10-16T00:10:57.509Z,10.20
2018-10-16T00:13:25.841Z,10.04
2018-10-16T00:15:54.177Z,9.98
2018-10-16T00:18:22.541Z,9.96
2018-10-16T00:20:50.874Z,9.91
2018-10-16T00:23:19.197Z,9.91
2018-10-16T00:25:47.804Z,9.87
2018-10-16T00:28:17.929Z,9.82
2018-10-16T00:30:47.473Z,9.77
2018-10-16T00:33:16.689Z,9.83
2018-10-16T00:35:47.362Z,9.80
2018-10-16T00:38:16.462Z,9.77
2018-10-16T00:40:46.098Z,9.77
2018-10-16T00:43:15.682Z,9.71
2018-10-16T00:45:45.579Z,9.70
2018-10-16T00:48:15.525Z,9.66
2018-10-16T00:50:46.201Z,9.68
2018-10-16T00:53:15.104Z,9.65
2018-10-16T00:55:45.401Z,9.59
2018-10-16T00:58:15.025Z,9.53
2018-10-16T01:00:44.189Z,9.50
2018-10-16T01:03:14.485Z,9.48
2018-10-16T01:05:44.438Z,9.54
2018-10-16T01:08:14.644Z,9.51
2018-10-16T01:10:43.149Z,9.52
2018-10-16T01:13:11.498Z,9.48
2018-10-16T01:15:39.924Z,9.46
2018-10-16T01:18:09.133Z,9.53
2018-10-16T01:20:37.473Z,9.48
2018-10-16T01:23:06.094Z,9.50
2018-10-16T01:25:34.434Z,9.34
2018-10-16T01:28:02.805Z,9.38
2018-10-16T01:30:31.165Z,9.32
2018-10-16T01:33:00.534Z,9.32
2018-10-16T01:35:29.761Z,9.28
2018-10-16T01:37:59.142Z,9.28
2018-10-16T01:40:27.494Z,9.25
2018-10-16T01:42:56.882Z,9.32
2018-10-16T01:45:25.243Z,9.42
2018-10-16T01:47:54.570Z,9.36
2018-10-16T01:50:23.086Z,9.25
2018-10-16T01:52:52.310Z,9.20
2018-10-16T01:55:21.674Z,9.21
2018-10-16T01:57:50.889Z,9.26
2018-10-16T02:00:19.287Z,9.33
2018-10-16T02:02:48.505Z,9.33
2018-10-16T02:05:17.833Z,9.33
2018-10-16T02:07:47.174Z,9.39
2018-10-16T02:10:16.533Z,9.41
2018-10-16T02:12:45.997Z,9.48
2018-10-16T02:15:15.645Z,9.54
2018-10-16T02:17:45.116Z,9.52
2018-10-16T02:20:14.365Z,9.46
2018-10-16T02:22:46.394Z,9.50
2018-10-16T02:25:16.698Z,9.48
2018-10-16T02:27:47.580Z,9.43
2018-10-16T02:30:16.892Z,9.48
2018-10-16T02:32:47.593Z,9.46
2018-10-16T02:35:16.832Z,9.44
2018-10-16T02:37:47.582Z,9.38
2018-10-16T02:40:17.363Z,9.34
2018-10-16T02:42:46.629Z,9.26
2018-10-16T02:45:17.449Z,9.24
2018-10-16T02:47:46.821Z,9.23
2018-10-16T02:50:17.533Z,9.20
2018-10-16T02:52:46.386Z,9.18
2018-10-16T02:55:16.488Z,9.19
2018-10-16T02:57:46.153Z,9.11
2018-10-16T03:00:15.769Z,9.07
2018-10-16T03:02:45.073Z,9.04
2018-10-16T03:05:14.779Z,9.01
2018-10-16T03:07:43.211Z,8.93
2018-10-16T03:10:11.553Z,8.91
2018-10-16T03:12:39.886Z,8.89
2018-10-16T03:15:12.030Z,8.91
2018-10-16T03:17:40.725Z,8.97
2018-10-16T03:20:11.058Z,8.89
2018-10-16T03:25:42.517Z,8.87
2018-10-16T03:28:12.423Z,8.82
2018-10-16T03:30:41.046Z,8.73
2018-10-16T03:33:09.916Z,8.64
2018-10-16T03:35:38.479Z,8.62
2018-10-16T03:38:07.062Z,8.64
2018-10-16T03:40:36.531Z,8.62
2018-10-16T03:43:06.284Z,8.61
2018-10-16T03:45:35.709Z,8.62
2018-10-16T03:48:05.370Z,8.81
2018-10-16T03:50:35.017Z,8.73
2018-10-16T03:53:04.511Z,8.73
2018-10-16T03:55:33.879Z,8.78
2018-10-16T03:58:03.574Z,8.82
2018-10-16T04:00:33.128Z,8.79
2018-10-16T04:03:02.591Z,8.71
2018-10-16T04:05:32.076Z,8.68
2018-10-16T04:08:01.571Z,8.65
2018-10-16T04:10:30.989Z,8.61
2018-10-16T04:13:00.608Z,8.61
2018-10-16T04:15:30.208Z,8.53
2018-10-16T04:17:59.929Z,8.48
2018-10-16T04:20:29.372Z,8.45
2018-10-16T04:22:58.795Z,8.37
2018-10-16T04:25:27.979Z,8.29
2018-10-16T04:27:57.288Z,8.13
2018-10-16T04:30:27.170Z,8.21
2018-10-16T04:32:56.415Z,8.31
2018-10-16T04:35:25.680Z,8.31
2018-10-16T04:37:54.595Z,8.23
2018-10-16T04:40:23.154Z,8.30
2018-10-16T04:42:51.807Z,8.17
2018-10-16T04:45:20.362Z,8.03
2018-10-16T04:47:48.949Z,8.01
2018-10-16T04:50:17.499Z,8.02
2018-10-16T04:52:46.052Z,7.99
2018-10-16T04:55:14.721Z,8.01
2018-10-16T04:57:43.251Z,8.06
2018-10-16T05:00:11.857Z,8.03
2018-10-16T05:02:41.551Z,8.05
2018-10-16T05:05:21.595Z,8.04
2018-10-16T05:07:51.577Z,7.98
2018-10-16T05:10:21.772Z,7.90
2018-10-16T05:12:50.665Z,7.89
2018-10-16T05:15:22.401Z,7.94
2018-10-16T05:17:52.060Z,8.04
2018-10-16T05:20:21.531Z,8.28
2018-10-16T05:22:50.062Z,8.35
2018-10-16T05:25:18.634Z,8.44
2018-10-16T05:27:47.252Z,8.44
2018-10-16T05:30:17.249Z,8.47
2018-10-16T05:32:45.851Z,8.45
2018-10-16T05:35:14.412Z,8.18
2018-10-16T05:37:43.021Z,8.00
2018-10-16T05:40:11.860Z,8.04
2018-10-16T05:42:40.820Z,7.98
2018-10-16T05:45:11.389Z,8.02
2018-10-16T05:47:40.933Z,7.95
2018-10-16T05:50:10.110Z,8.00
2018-10-16T05:52:38.817Z,7.98
2018-10-16T05:55:07.931Z,7.94
2018-10-16T05:57:36.590Z,7.91
2018-10-16T06:00:17.612Z,8.08
2018-10-16T06:02:47.015Z,8.05
2018-10-16T06:05:16.499Z,8.03
2018-10-16T06:07:45.952Z,8.02
2018-10-16T06:10:15.591Z,8.02
2018-10-16T06:12:45.032Z,7.99
2018-10-16T06:15:14.506Z,8.03
2018-10-16T06:17:44.696Z,8.14
2018-10-16T06:20:14.310Z,8.23
2018-10-16T06:22:43.886Z,8.22
2018-10-16T06:25:13.473Z,8.28
2018-10-16T06:27:43.684Z,8.27
2018-10-16T06:30:13.417Z,8.29
2018-10-16T06:32:42.832Z,8.31
2018-10-16T06:35:11.883Z,8.43
2018-10-16T06:37:41.333Z,8.45
2018-10-16T06:40:11.384Z,8.48
2018-10-16T06:42:40.485Z,8.58
2018-10-16T06:45:10.370Z,8.53
2018-10-16T06:47:39.046Z,8.61
2018-10-16T06:50:09.441Z,8.76
2018-10-16T06:52:38.036Z,8.85
2018-10-16T06:55:06.710Z,8.93
2018-10-16T06:57:35.254Z,9.02
2018-10-16T07:00:04.215Z,9.15
2018-10-16T07:02:32.768Z,9.28
2018-10-16T07:05:01.314Z,9.34
2018-10-16T07:07:29.876Z,9.40
2018-10-16T07:09:58.455Z,9.48
2018-10-16T07:12:27.663Z,9.61
2018-10-16T07:14:56.666Z,9.68
2018-10-16T07:17:25.611Z,9.89
2018-10-16T07:19:54.164Z,10.13
2018-10-16T07:22:23.150Z,10.30
2018-10-16T07:24:51.760Z,10.35
2018-10-16T07:27:20.382Z,10.49
2018-10-16T07:29:49.015Z,10.52
2018-10-16T07:32:17.573Z,10.65
2018-10-16T07:34:46.163Z,10.68
2018-10-16T07:37:14.759Z,10.75
2018-10-16T07:39:43.329Z,10.85
2018-10-16T07:42:11.874Z,10.99
2018-10-16T07:44:40.505Z,11.07
2018-10-16T07:47:09.120Z,11.30
2018-10-16T07:49:38.230Z,11.38
2018-10-16T07:52:06.916Z,11.52
2018-10-16T07:54:35.484Z,11.64
2018-10-16T07:57:04.084Z,11.72
2018-10-16T07:59:35.231Z,11.76
2018-10-16T08:02:14.046Z,11.77
2018-10-16T08:04:42.604Z,11.75
2018-10-16T08:07:11.173Z,11.75
2018-10-16T08:09:39.727Z,11.82
2018-10-16T08:12:10.388Z,11.78
2018-10-16T08:14:40.491Z,11.78
2018-10-16T08:17:09.898Z,11.74
2018-10-16T08:19:38.496Z,11.71
2018-10-16T08:22:07.079Z,11.73
2018-10-16T08:24:35.689Z,11.60
2018-10-16T08:27:04.268Z,11.52
2018-10-16T08:29:32.874Z,11.53
2018-10-16T08:32:01.459Z,11.47
2018-10-16T08:34:30.010Z,11.39
2018-10-16T08:36:59.586Z,11.43
2018-10-16T08:39:31.047Z,11.36
2018-10-16T08:45:17.487Z,11.56
2018-10-16T08:47:57.953Z,11.80
2018-10-16T08:50:39.120Z,11.84
2018-10-16T08:53:07.699Z,12.03
2018-10-16T08:55:36.881Z,12.31
2018-10-16T08:58:07.399Z,12.57
2018-10-16T09:00:37.361Z,12.80
2018-10-16T09:03:06.248Z,13.04
2018-10-16T09:05:35.822Z,13.24
2018-10-16T09:08:05.583Z,13.46
2018-10-16T09:10:35.183Z,13.56
2018-10-16T09:13:04.766Z,13.70
2018-10-16T09:15:34.342Z,13.88
2018-10-16T09:18:02.882Z,14.08
2018-10-16T09:20:32.345Z,14.35
2018-10-16T09:23:01.826Z,14.50
2018-10-16T09:25:31.267Z,14.78
2018-10-16T09:28:00.992Z,15.01
2018-10-16T09:30:30.226Z,15.21
2018-10-16T09:32:59.803Z,15.48
2018-10-16T09:35:29.688Z,15.66
2018-10-16T09:37:59.054Z,15.90
2018-10-16T09:40:27.896Z,15.91
2018-10-16T09:42:57.298Z,16.15
2018-10-16T09:45:26.635Z,16.22
2018-10-16T09:47:55.993Z,16.31
2018-10-16T09:50:25.854Z,16.40
2018-10-16T09:52:54.770Z,16.66
2018-10-16T09:55:23.389Z,16.89
2018-10-16T09:57:52.198Z,17.15
2018-10-16T10:00:26.140Z,17.35
2018-10-16T10:02:54.714Z,17.58
2018-10-16T10:05:23.331Z,17.68
2018-10-16T10:07:51.881Z,17.81
2018-10-16T10:10:20.778Z,17.88
2018-10-16T10:12:49.332Z,17.94
2018-10-16T10:15:17.863Z,17.97
2018-10-16T10:17:46.411Z,17.97
2018-10-16T10:20:14.916Z,17.91
2018-10-16T10:22:43.462Z,17.99
2018-10-16T10:25:12.924Z,17.99
2018-10-16T10:27:41.456Z,18.02
2018-10-16T10:30:11.877Z,17.97
2018-10-16T10:32:40.476Z,17.97
2018-10-16T10:35:10.669Z,17.97
2018-10-16T10:37:39.218Z,17.89
2018-10-16T10:40:07.928Z,17.84
2018-10-16T10:42:36.485Z,17.84
2018-10-16T10:45:05.883Z,17.86
2018-10-16T10:47:34.456Z,17.88
2018-10-16T10:50:03.114Z,17.75
2018-10-16T10:52:31.944Z,17.68
2018-10-16T10:55:02.280Z,17.75
2018-10-16T10:57:32.015Z,17.90
2018-10-16T11:00:01.831Z,17.93
2018-10-16T11:02:30.405Z,17.87
2018-10-16T11:04:58.959Z,17.85
2018-10-16T11:07:28.769Z,17.87
2018-10-16T11:09:58.773Z,18.02
2018-10-16T11:12:28.519Z,18.06
2018-10-16T11:14:57.748Z,18.04
2018-10-16T11:17:28.312Z,18.11
2018-10-16T11:19:57.788Z,18.20
2018-10-16T11:22:27.246Z,18.49
2018-10-16T11:24:56.911Z,18.69
2018-10-16T11:27:27.101Z,18.87
2018-10-16T11:29:55.694Z,18.83
2018-10-16T11:32:25.121Z,19.00
2018-10-16T11:34:53.633Z,19.17
2018-10-16T11:37:23.190Z,19.23
2018-10-16T11:39:52.692Z,19.35
2018-10-16T11:42:21.263Z,19.51
2018-10-16T11:44:49.800Z,19.71
2018-10-16T11:47:18.426Z,19.92
2018-10-16T11:49:47.008Z,19.92
2018-10-16T11:52:15.690Z,20.20
2018-10-16T11:54:45.125Z,20.49
2018-10-16T11:57:14.610Z,20.88
2018-10-16T11:59:43.154Z,21.05
2018-10-16T12:02:11.808Z,21.24
2018-10-16T12:04:40.305Z,20.97
2018-10-16T12:07:08.975Z,21.09
2018-10-16T12:09:37.483Z,21.02
2018-10-16T12:12:06.313Z,20.73
2018-10-16T12:14:34.868Z,20.56
2018-10-16T12:17:08.775Z,20.39
2018-10-16T12:19:47.516Z,20.31
2018-10-16T12:22:17.167Z,20.23
2018-10-16T12:24:45.717Z,20.19
2018-10-16T12:27:14.292Z,20.16
2018-10-16T12:29:42.858Z,20.25
2018-10-16T12:32:11.485Z,20.33
2018-10-16T12:34:40.891Z,20.30
2018-10-16T12:37:09.548Z,20.23
2018-10-16T12:39:38.123Z,20.13
2018-10-16T12:42:06.745Z,20.09
2018-10-16T12:44:35.339Z,20.06
2018-10-16T12:47:03.969Z,20.11
2018-10-16T12:49:32.522Z,20.04
2018-10-16T12:52:01.088Z,20.01
2018-10-16T12:54:30.558Z,20.01
2018-10-16T12:56:59.145Z,20.00
2018-10-16T12:59:27.876Z,19.93
2018-10-16T13:01:57.543Z,20.00
2018-10-16T13:04:28.083Z,20.06
2018-10-16T13:07:03.036Z,20.10
2018-10-16T13:09:32.614Z,20.06
2018-10-16T13:12:02.101Z,20.10
2018-10-16T13:14:31.630Z,20.09
2018-10-16T13:17:01.116Z,20.11
2018-10-16T13:19:30.524Z,20.14
2018-10-16T13:22:00.352Z,20.20
2018-10-16T13:24:29.964Z,20.19
2018-10-16T13:26:59.406Z,20.21
2018-10-16T13:29:29.036Z,20.21
2018-10-16T13:31:59.029Z,20.24
2018-10-16T13:34:29.592Z,20.33
2018-10-16T13:36:59.014Z,20.41
2018-10-16T13:39:28.769Z,20.44
2018-10-16T13:41:58.254Z,20.43
2018-10-16T13:44:28.765Z,20.43
2018-10-16T13:46:58.086Z,20.40
2018-10-16T13:49:28.654Z,20.41
2018-10-16T13:51:58.371Z,20.32
2018-10-16T13:54:28.296Z,20.35
2018-10-16T13:56:58.025Z,20.24
2018-10-16T13:59:27.541Z,20.20
2018-10-16T14:01:56.434Z,20.19
2018-10-16T14:04:25.755Z,20.17
2018-10-16T14:06:54.647Z,20.07
2018-10-16T14:09:25.931Z,20.06
2018-10-16T14:11:54.682Z,20.13
2018-10-16T14:14:23.331Z,20.06
2018-10-16T14:16:52.191Z,20.00
2018-10-16T14:19:20.687Z,20.00
2018-10-16T14:21:49.304Z,19.92
2018-10-16T14:24:17.768Z,19.90
2018-10-16T14:26:46.584Z,19.78
2018-10-16T14:29:15.157Z,19.76
2018-10-16T14:31:43.735Z,19.75
2018-10-16T14:34:12.368Z,19.71
2018-10-16T14:36:40.922Z,19.55
2018-10-16T14:39:11.700Z,19.43
2018-10-16T14:41:40.236Z,19.42
2018-10-16T14:44:09.349Z,19.37
2018-10-16T14:46:37.912Z,19.33
2018-10-16T14:49:06.572Z,19.34
2018-10-16T14:51:35.752Z,19.29
2018-10-16T14:54:04.342Z,19.36
2018-10-16T14:56:34.542Z,19.43
2018-10-16T14:59:04.354Z,19.50
2018-10-16T15:01:33.823Z,19.55
2018-10-16T15:04:03.334Z,19.51
2018-10-16T15:06:33.198Z,19.55
2018-10-16T15:09:01.770Z,19.52
2018-10-16T15:11:30.320Z,19.48
2018-10-16T15:13:59.963Z,19.43
2018-10-16T15:16:29.490Z,19.30
2018-10-16T15:18:58.085Z,19.19
2018-10-16T15:21:27.717Z,19.06
2018-10-16T15:23:58.520Z,18.94
2018-10-16T15:26:28.153Z,18.83
2018-10-16T15:28:58.847Z,18.72
2018-10-16T15:31:28.105Z,18.53
2018-10-16T15:33:58.677Z,18.40
2018-10-16T15:36:28.269Z,18.25
2018-10-16T15:38:57.881Z,18.08
2018-10-16T15:41:27.210Z,17.92
2018-10-16T15:43:55.773Z,17.80
2018-10-16T15:46:24.815Z,17.68
2018-10-16T15:48:54.990Z,17.54
2018-10-16T15:51:24.698Z,17.37
2018-10-16T15:53:55.224Z,17.23
2018-10-16T15:56:25.515Z,17.13
2018-10-16T15:58:54.102Z,17.06
2018-10-16T16:01:23.917Z,16.94
2018-10-16T16:03:53.615Z,16.79
2018-10-16T16:06:22.211Z,16.61
2018-10-16T16:08:51.857Z,16.43
2018-10-16T16:11:21.300Z,16.24
2018-10-16T16:13:50.788Z,16.10
2018-10-16T16:16:20.201Z,15.98
2018-10-16T16:18:48.795Z,15.85
2018-10-16T16:21:17.349Z,15.78
2018-10-16T16:23:46.833Z,15.66
2018-10-16T16:26:15.464Z,15.53
2018-10-16T16:28:44.931Z,15.41
2018-10-16T16:31:13.652Z,15.27
2018-10-16T16:33:43.078Z,15.14
2018-10-16T16:36:11.719Z,15.05
2018-10-16T16:38:41.263Z,14.96
2018-10-16T16:41:10.055Z,14.87
2018-10-16T16:43:38.905Z,14.76
2018-10-16T16:46:08.457Z,14.66
2018-10-16T16:48:37.923Z,14.58
2018-10-16T16:51:07.396Z,14.54
2018-10-16T16:53:36.983Z,14.52
2018-10-16T16:56:06.619Z,14.45
2018-10-16T16:58:35.751Z,14.38
2018-10-16T17:01:05.382Z,14.31
2018-10-16T17:03:35.036Z,14.26
2018-10-16T17:06:04.634Z,14.23
2018-10-16T17:08:33.560Z,14.20
2018-10-16T17:11:02.195Z,14.10
2018-10-16T17:13:30.797Z,14.03
2018-10-16T17:16:00.273Z,13.99
2018-10-16T17:18:28.972Z,13.84
2018-10-16T17:20:58.635Z,13.71
2018-10-16T17:23:28.250Z,13.62
2018-10-16T17:25:57.837Z,13.55
2018-10-16T17:28:28.302Z,13.55
2018-10-16T17:30:57.939Z,13.48
2018-10-16T17:33:27.538Z,13.52
2018-10-16T17:35:58.085Z,13.46
2018-10-16T17:38:29.058Z,13.35
2018-10-16T17:40:58.888Z,13.25
2018-10-16T17:43:27.606Z,13.26
2018-10-16T17:45:57.285Z,13.19
2018-10-16T17:48:27.395Z,13.19
2018-10-16T17:50:56.756Z,13.08
2018-10-16T17:53:27.422Z,13.09
2018-10-16T17:55:56.872Z,13.01
2018-10-16T17:58:25.836Z,12.99
2018-10-16T18:00:55.442Z,12.92
2018-10-16T18:03:25.590Z,12.89
2018-10-16T18:05:54.166Z,12.83
2018-10-16T18:08:23.746Z,12.74
2018-10-16T18:10:52.340Z,12.65
2018-10-16T18:13:20.894Z,12.62
2018-10-16T18:15:49.499Z,12.61
2018-10-16T18:18:18.234Z,12.55
2018-10-16T18:20:46.974Z,12.51
2018-10-16T18:23:15.544Z,12.50
2018-10-16T18:25:44.251Z,12.48
2018-10-16T18:28:13.869Z,12.43
2018-10-16T18:30:42.429Z,12.38
2018-10-16T18:33:12.247Z,12.43
2018-10-16T18:35:40.786Z,12.44
2018-10-16T18:38:09.370Z,12.37
2018-10-16T18:40:37.923Z,12.29
2018-10-16T18:43:06.557Z,12.26
2018-10-16T18:45:35.242Z,12.21
2018-10-16T18:48:04.905Z,12.18
2018-10-16T18:50:35.154Z,12.09
2018-10-16T18:53:07.395Z,12.03
2018-10-16T18:55:40.156Z,11.97
2018-10-16T18:58:09.012Z,11.96
2018-10-16T19:00:38.480Z,12.03
2018-10-16T19:03:07.589Z,12.01
2018-10-16T19:05:37.595Z,11.89
2018-10-16T19:08:06.625Z,11.94
2018-10-16T19:10:36.284Z,12.03
2018-10-16T19:13:05.620Z,11.98
2018-10-16T19:15:34.561Z,11.88
2018-10-16T19:18:05.590Z,11.76
2018-10-16T19:20:43.267Z,11.62
2018-10-16T19:23:21.889Z,11.51
2018-10-16T19:25:52.884Z,11.46
2018-10-16T19:28:26.617Z,11.42
2018-10-16T19:30:56.389Z,11.39
2018-10-16T19:33:28.439Z,11.36
2018-10-16T19:35:58.984Z,11.38
2018-10-16T19:38:30.534Z,11.41
2018-10-16T19:41:01.471Z,11.55
2018-10-16T19:43:32.574Z,11.56
2018-10-16T19:46:02.728Z,11.61
2018-10-16T19:48:33.138Z,11.67
2018-10-16T19:51:01.917Z,11.61
2018-10-16T19:53:33.201Z,11.54
2018-10-16T19:56:03.955Z,11.40
2018-10-16T19:58:34.126Z,11.25
2018-10-16T20:01:04.309Z,11.13
2018-10-16T20:03:32.871Z,11.03
2018-10-16T20:06:03.286Z,10.97
2018-10-16T20:08:32.839Z,10.97
2018-10-16T20:11:02.659Z,10.99
2018-10-16T20:13:32.973Z,10.93
2018-10-16T20:16:03.828Z,10.88
2018-10-16T20:18:35.074Z,10.84
2018-10-16T20:21:04.513Z,10.79
2018-10-16T20:23:33.592Z,10.74
2018-10-16T20:26:02.340Z,10.68
2018-10-16T20:28:31.134Z,10.65
2018-10-16T20:30:59.914Z,10.63
2018-10-16T20:33:28.461Z,10.68
2018-10-16T20:35:57.632Z,10.74
2018-10-16T20:38:27.204Z,10.73
2018-10-16T20:40:56.855Z,10.66
2018-10-16T20:43:25.970Z,10.61
2018-10-16T20:45:56.145Z,10.63
2018-10-16T20:48:25.752Z,10.54
2018-10-16T20:50:56.202Z,10.48
2018-10-16T20:53:25.406Z,10.41
2018-10-16T20:55:55.455Z,10.39
2018-10-16T20:58:24.051Z,10.36
2018-10-16T21:00:53.835Z,10.32
2018-10-16T21:03:22.412Z,10.32
2018-10-16T21:05:52.065Z,10.43
2018-10-16T21:08:20.547Z,10.47
2018-10-16T21:10:49.254Z,10.50
2018-10-16T21:13:17.825Z,10.52
2018-10-16T21:15:46.428Z,10.46
2018-10-16T21:18:15.007Z,10.27
2018-10-16T21:20:43.719Z,10.08
2018-10-16T21:23:12.267Z,9.93
2018-10-16T21:25:41.819Z,9.87
2018-10-16T21:28:11.241Z,9.82
2018-10-16T21:30:40.662Z,9.77
2018-10-16T21:33:09.188Z,9.77
2018-10-16T21:35:38.738Z,9.75
2018-10-16T21:38:08.195Z,9.74
2018-10-16T21:40:37.611Z,9.78
2018-10-16T21:43:06.568Z,9.75
2018-10-16T21:45:35.133Z,9.74
2018-10-16T21:48:03.734Z,9.72
2018-10-16T21:50:33.116Z,9.72
2018-10-16T21:53:01.921Z,9.69
2018-10-16T21:55:30.446Z,9.64
2018-10-16T21:57:58.992Z,9.62
2018-10-16T22:00:33.297Z,9.61
2018-10-16T22:03:01.873Z,9.56
2018-10-16T22:05:30.411Z,9.53
2018-10-16T22:07:58.976Z,9.56
2018-10-16T22:10:27.935Z,9.71
2018-10-16T22:12:57.411Z,9.73
2018-10-16T22:15:26.789Z,9.66
2018-10-16T22:17:56.918Z,9.62
2018-10-16T22:20:26.136Z,9.58
2018-10-16T22:22:55.662Z,9.49
2018-10-16T22:25:25.488Z,9.43
2018-10-16T22:27:55.489Z,9.34
2018-10-16T22:30:24.042Z,9.37
2018-10-16T22:32:53.588Z,9.35
2018-10-16T22:35:22.234Z,9.33
2018-10-16T22:37:50.806Z,9.42
2018-10-16T22:40:19.411Z,9.36
2018-10-16T22:42:47.960Z,9.35
2018-10-16T22:45:16.536Z,9.30
2018-10-16T22:47:45.127Z,9.22
2018-10-16T22:50:13.996Z,9.17
2018-10-16T22:52:43.558Z,9.23
2018-10-16T22:55:12.252Z,9.19
2018-10-16T22:57:41.693Z,9.19
2018-10-16T23:00:14.470Z,9.10
2018-10-16T23:02:43.260Z,9.02
2018-10-16T23:05:11.959Z,8.96
2018-10-16T23:07:41.598Z,8.96
2018-10-16T23:10:11.148Z,8.89
2018-10-16T23:12:39.672Z,8.85
2018-10-16T23:15:10.539Z,8.82
2018-10-16T23:17:40.341Z,9.04
2018-10-16T23:20:11.370Z,9.15
2018-10-16T23:22:40.933Z,9.07
2018-10-16T23:25:10.558Z,9.00
2018-10-16T23:27:39.964Z,8.86
2018-10-16T23:30:09.567Z,8.75
2018-10-16T23:32:38.407Z,8.70
2018-10-16T23:35:07.101Z,8.70
2018-10-16T23:37:36.608Z,8.71
2018-10-16T23:40:06.573Z,8.61
2018-10-16T23:42:35.114Z,8.68
2018-10-16T23:45:03.880Z,8.64
2018-10-16T23:47:32.463Z,8.73
2018-10-16T23:50:01.107Z,8.77
2018-10-16T23:52:30.661Z,8.70
2018-10-16T23:54:59.293Z,8.65
2018-10-16T23:57:28.750Z,8.69
2018-10-16T23:59:58.272Z,8.63
